Time;durP1;ratioP1;P1;durP2;ratioP2;P2;SDS_P1;SDS_P2;PMS_P1;PMS_P2;Temp;Humidity;BMP_temperature;BMP_pressure;BME280_temperature;BME280_humidity;BME280_pressure;Samples;Min_cycle;Max_cycle;Signal;HPM_P1;HPM_P2
2023/05/27 00:01:22;;;;;;;9.00;5.33;;;;;;;8.57;83.31;98085.91;6193995;28;20328;-93
2023/05/27 00:04:25;;;;;;;11.53;5.47;;;;;;;9.42;83.66;98213.63;6214414;28;20291;-94
2023/05/27 00:07:28;;;;;;;8.70;4.93;;;;;;;9.12;83.85;98194.13;6208176;28;20241;-94
2023/05/27 00:10:31;;;;;;;8.57;5.27;;;;;;;10.47;84.03;98417.63;6216178;28;20236;-94
2023/05/27 00:13:34;;;;;;;9.70;5.67;;;;;;;9.97;83.81;98336.03;6213442;28;20238;-94
2023/05/27 00:16:39;;;;;;;8.37;5.10;;;;;;;8.94;83.67;98168.31;6218658;28;20429;-94
2023/05/27 00:19:44;;;;;;;8.90;5.03;;;;;;;9.56;83.62;98288.78;6200765;28;20220;-94
2023/05/27 00:22:49;;;;;;;12.57;5.27;;;;;;;10.55;83.64;98470.63;6200778;28;20236;-94
2023/05/27 00:25:52;;;;;;;9.27;4.83;;;;;;;10.51;83.75;98430.28;6197308;28;20220;-93
2023/05/27 00:28:54;;;;;;;9.80;5.10;;;;;;;8.49;83.57;98137.44;6217252;28;20316;-94
2023/05/27 00:31:57;;;;;;;8.33;4.57;;;;;;;9.70;83.66;98335.47;6216789;28;20238;-94
2023/05/27 00:35:00;;;;;;;11.97;5.50;;;;;;;10.38;83.44;98434.94;6179811;28;20234;-93
2023/05/27 00:38:05;;;;;;;9.83;4.87;;;;;;;9.09;83.70;98234.41;6191291;28;20717;-93
2023/05/27 00:41:10;;;;;;;9.67;4.80;;;;;;;8.98;83.12;98227.97;6184202;28;20778;-94
2023/05/27 00:44:14;;;;;;;9.60;4.60;;;;;;;9.22;82.97;98292.78;6203480;28;20264;-94
2023/05/27 00:47:17;;;;;;;5.77;4.07;;;;;;;9.92;83.08;98372.34;6193312;28;20597;-94
2023/05/27 00:50:21;;;;;;;10.53;4.67;;;;;;;8.90;82.99;98252.94;6192484;28;20710;-93
2023/05/27 00:53:24;;;;;;;11.47;4.77;;;;;;;8.09;82.72;98120.97;6181813;28;20663;-94
2023/05/27 00:56:27;;;;;;;8.37;4.43;;;;;;;9.66;83.00;98365.44;6207511;28;20223;-93
2023/05/27 00:59:30;;;;;;;10.27;5.23;;;;;;;8.97;83.09;98260.91;6217388;28;20532;-94
2023/05/27 01:02:32;;;;;;;9.87;4.63;;;;;;;9.09;83.30;98283.06;6214147;28;20771;-94
2023/05/27 01:05:35;;;;;;;7.73;4.53;;;;;;;8.48;83.17;98204.06;6220473;28;20235;-93
2023/05/27 01:08:51;;;;;;;8.67;4.53;;;;;;;9.84;83.03;98413.34;6212972;28;20239;-92
2023/05/27 01:12:07;;;;;;;9.83;4.60;;;;;;;9.69;83.12;98404.88;6215952;28;20321;-93
2023/05/27 01:15:11;;;;;;;8.43;4.00;;;;;;;7.55;82.62;98084.38;6234073;28;20477;-93
2023/05/27 01:18:18;;;;;;;9.77;4.30;;;;;;;9.73;82.96;98427.34;6237308;28;20215;-93
2023/05/27 01:21:24;;;;;;;8.93;4.03;;;;;;;9.39;83.00;98360.31;6211314;28;20607;-93
2023/05/27 01:24:26;;;;;;;8.40;4.43;;;;;;;8.57;82.62;98247.06;6195831;28;20227;-93
2023/05/27 01:27:29;;;;;;;7.90;4.10;;;;;;;6.80;82.75;97967.53;6217705;28;20238;-94
2023/05/27 01:30:35;;;;;;;8.07;3.70;;;;;;;8.42;82.63;98260.63;6219057;28;20445;-93
2023/05/27 01:33:40;;;;;;;7.13;3.80;;;;;;;7.80;82.86;98145.44;6218777;28;20235;-93
2023/05/27 01:36:47;;;;;;;10.27;4.00;;;;;;;9.04;82.93;98342.19;6222821;28;20287;-94
2023/05/27 01:39:50;;;;;;;9.63;4.53;;;;;;;7.15;82.68;98050.13;6240406;28;20228;-93
2023/05/27 01:42:54;;;;;;;10.83;4.10;;;;;;;7.47;82.60;98131.31;6228348;28;20224;-93
2023/05/27 01:45:57;;;;;;;9.50;4.20;;;;;;;9.41;83.32;98415.94;6230578;28;20594;-93
2023/05/27 01:48:59;;;;;;;7.70;3.90;;;;;;;8.73;82.74;98342.19;6232568;28;20598;-93
2023/05/27 01:52:02;;;;;;;5.67;3.73;;;;;;;6.76;82.75;98030.72;6238096;28;20230;-93
2023/05/27 01:55:06;;;;;;;8.17;4.07;;;;;;;8.94;83.13;98379.03;6219339;28;20723;-93
2023/05/27 01:58:10;;;;;;;6.90;4.53;;;;;;;7.46;83.02;98142.13;6233836;28;20231;-93
2023/05/27 02:01:12;;;;;;;9.93;4.70;;;;;;;7.53;82.98;98150.84;6216788;28;20235;-93
2023/05/27 02:04:16;;;;;;;9.03;3.90;;;;;;;7.27;82.72;98097.97;6201551;28;20614;-94
2023/05/27 02:07:19;;;;;;;12.57;5.13;;;;;;;9.04;83.52;98394.53;6231497;28;20263;-93
2023/05/27 02:10:23;;;;;;;8.57;4.00;;;;;;;9.26;83.27;98438.34;6218748;28;20319;-94
2023/05/27 02:13:25;;;;;;;12.60;4.57;;;;;;;6.88;83.54;98103.19;6214402;28;20237;-93
2023/05/27 02:16:30;;;;;;;10.73;4.57;;;;;;;8.12;83.82;98261.19;6216270;28;20331;-93
2023/05/27 02:19:32;;;;;;;10.00;4.60;;;;;;;8.70;83.60;98383.25;6215236;28;20222;-93
2023/05/27 02:22:35;;;;;;;8.30;4.10;;;;;;;9.18;83.80;98416.53;6213752;28;20343;-93
2023/05/27 02:25:38;;;;;;;8.57;4.70;;;;;;;8.63;84.25;98337.34;6217368;28;20321;-93
2023/05/27 02:28:40;;;;;;;7.40;4.23;;;;;;;6.36;83.81;97972.59;6235029;28;20237;-93
2023/05/27 02:31:43;;;;;;;9.73;4.90;;;;;;;6.70;83.59;98072.06;6217279;28;20310;-93
2023/05/27 02:34:45;;;;;;;6.97;4.40;;;;;;;9.15;84.09;98447.00;6214685;28;20226;-93
2023/05/27 02:37:47;;;;;;;9.70;4.80;;;;;;;8.93;84.08;98445.69;6229417;28;20238;-93
2023/05/27 02:40:50;;;;;;;9.10;4.90;;;;;;;7.23;83.89;98122.22;6211292;28;20328;-92
2023/05/27 02:43:54;;;;;;;10.03;4.43;;;;;;;7.25;83.84;98119.38;6198168;28;20236;-94
2023/05/27 02:46:57;;;;;;;8.50;4.63;;;;;;;8.10;84.02;98267.75;6187804;28;20255;-94
2023/05/27 02:49:59;;;;;;;7.43;3.80;;;;;;;8.27;84.39;98313.97;6226776;28;20313;-93
2023/05/27 02:53:03;;;;;;;9.60;4.30;;;;;;;8.19;84.33;98301.78;6211305;28;20221;-91
2023/05/27 02:56:05;;;;;;;7.63;4.87;;;;;;;8.87;84.63;98401.38;6237557;28;20217;-93
2023/05/27 02:59:07;;;;;;;7.70;4.60;;;;;;;6.72;84.25;98075.31;6213745;28;20227;-94
2023/05/27 03:02:11;;;;;;;9.10;5.37;;;;;;;9.06;84.34;98419.03;6227352;28;20268;-93
2023/05/27 03:05:14;;;;;;;10.93;4.37;;;;;;;8.69;84.25;98373.66;6213605;28;20241;-94
2023/05/27 03:08:17;;;;;;;8.40;4.47;;;;;;;8.56;84.08;98351.66;6218249;28;20737;-94
2023/05/27 03:11:21;;;;;;;9.60;4.27;;;;;;;7.58;84.08;98209.38;6205996;28;20236;-93
2023/05/27 03:14:24;;;;;;;7.13;4.67;;;;;;;9.08;84.12;98445.41;6231417;28;20206;-93
2023/05/27 03:17:27;;;;;;;11.13;4.33;;;;;;;6.05;84.06;97943.34;6220924;28;20244;-93
2023/05/27 03:20:29;;;;;;;11.13;4.37;;;;;;;7.23;84.54;98139.97;6208039;28;20229;-92
2023/05/27 03:23:32;;;;;;;8.30;4.50;;;;;;;8.02;84.56;98284.69;6211292;28;20234;-93
2023/05/27 03:26:35;;;;;;;8.57;4.67;;;;;;;7.38;84.31;98161.72;6188352;28;20621;-93
2023/05/27 03:29:40;;;;;;;10.10;4.40;;;;;;;8.40;83.85;98337.84;6224359;28;20241;-93
2023/05/27 03:32:43;;;;;;;9.30;4.53;;;;;;;8.62;83.46;98364.09;6182216;28;20232;-93
2023/05/27 03:35:46;;;;;;;11.33;4.97;;;;;;;9.08;83.10;98429.47;6188354;28;20330;-93
2023/05/27 03:38:48;;;;;;;6.97;4.27;;;;;;;8.80;83.42;98382.81;6199240;28;20225;-93
2023/05/27 03:41:51;;;;;;;7.87;4.67;;;;;;;6.27;82.41;97994.19;6193681;28;20241;-93
2023/05/27 03:44:53;;;;;;;15.53;4.60;;;;;;;7.43;82.42;98179.66;6211565;28;20278;-94
2023/05/27 03:47:56;;;;;;;11.37;4.90;;;;;;;9.15;82.98;98419.59;6217502;28;20239;-94
2023/05/27 03:50:59;;;;;;;8.70;4.77;;;;;;;9.17;82.64;98465.41;6212232;28;20235;-93
2023/05/27 03:54:02;;;;;;;10.43;5.27;;;;;;;8.20;82.26;98290.13;6216313;28;20234;-94
2023/05/27 03:57:06;;;;;;;11.13;4.57;;;;;;;6.23;82.21;97991.13;6213195;28;20209;-93
2023/05/27 04:00:13;;;;;;;11.10;4.53;;;;;;;7.32;82.57;98135.25;6179445;28;20224;-93
2023/05/27 04:03:33;;;;;;;11.43;4.90;;;;;;;9.27;81.74;98415.25;6199567;28;20233;-93
2023/05/27 04:06:37;;;;;;;8.23;3.90;;;;;;;7.61;81.73;98174.50;6197802;28;20368;-93
2023/05/27 04:09:39;;;;;;;7.00;3.50;;;;;;;8.92;81.61;98356.38;6216800;28;20241;-94
2023/05/27 04:12:42;;;;;;;9.73;4.70;;;;;;;9.33;81.14;98400.25;6223698;28;20608;-93
2023/05/27 04:15:45;;;;;;;10.97;4.30;;;;;;;9.15;80.71;98375.22;6214215;28;20233;-94
2023/05/27 04:18:51;;;;;;;12.20;4.43;;;;;;;8.73;81.07;98294.38;6212549;28;20603;-93
2023/05/27 04:21:54;;;;;;;6.93;3.70;;;;;;;9.59;81.15;98437.28;6233227;28;20708;-93
2023/05/27 04:24:58;;;;;;;9.93;4.70;;;;;;;9.66;80.28;98418.63;6210764;28;20224;-93
2023/05/27 04:28:04;;;;;;;10.23;4.13;;;;;;;9.13;80.37;98340.06;6219491;28;20378;-93
2023/05/27 04:31:12;;;;;;;9.33;4.37;;;;;;;8.33;77.52;98166.34;6222119;28;20606;-93
2023/05/27 04:34:20;;;;;;;12.77;4.73;;;;;;;9.65;77.54;98358.44;6231706;28;20234;-93
2023/05/27 04:37:23;;;;;;;8.03;4.03;;;;;;;9.73;78.88;98361.66;6220211;28;20220;-93
2023/05/27 04:40:26;;;;;;;10.17;4.50;;;;;;;8.78;74.44;98164.38;6206578;28;20249;-94
2023/05/27 04:43:47;;;;;;;9.00;3.93;;;;;;;10.27;74.33;98377.91;6217693;28;20308;-93
2023/05/27 04:46:54;;;;;;;8.63;3.63;;;;;;;10.28;74.55;98400.84;6205475;28;20448;-93
2023/05/27 04:50:00;;;;;;;10.23;4.07;;;;;;;9.22;74.32;98202.41;6206808;28;20240;-93
2023/05/27 04:53:04;;;;;;;7.10;3.73;;;;;;;9.35;73.06;98198.78;6204825;28;20753;-95
2023/05/27 04:56:09;;;;;;;12.17;4.30;;;;;;;9.20;71.96;98135.34;6213359;28;20238;-93
2023/05/27 04:59:16;;;;;;;8.90;3.70;;;;;;;10.72;69.27;98350.91;6229364;28;20228;-93
2023/05/27 05:02:22;;;;;;;12.03;3.60;;;;;;;10.16;69.10;98234.88;6212067;28;20363;-93
2023/05/27 05:05:36;;;;;;;11.20;3.87;;;;;;;9.33;69.86;98103.28;6194945;28;20568;-93
2023/05/27 05:08:42;;;;;;;7.03;4.03;;;;;;;11.77;67.40;98441.03;6214874;28;20242;-94
2023/05/27 05:11:47;;;;;;;11.20;3.87;;;;;;;10.55;65.84;98234.34;6210376;28;20331;-94
2023/05/27 05:14:50;;;;;;;8.83;3.57;;;;;;;11.39;65.36;98356.91;6229650;28;20235;-93
2023/05/27 05:17:53;;;;;;;8.77;3.70;;;;;;;11.82;67.63;98442.03;6214254;28;20318;-93
2023/05/27 05:20:58;;;;;;;13.50;3.93;;;;;;;8.81;66.21;97983.28;6218754;28;20633;-93
2023/05/27 05:24:08;;;;;;;13.07;4.20;;;;;;;11.30;66.49;98380.41;6193434;28;20234;-92
2023/05/27 05:27:11;;;;;;;7.53;3.60;;;;;;;11.66;64.20;98401.81;6208708;28;20254;-91
2023/05/27 05:30:14;;;;;;;9.70;4.10;;;;;;;10.82;64.21;98253.38;6199257;28;20374;-93
2023/05/27 05:33:17;;;;;;;9.47;3.70;;;;;;;10.53;65.81;98212.41;6234782;28;20620;-93
2023/05/27 05:36:20;;;;;;;10.40;3.53;;;;;;;11.30;64.35;98320.94;6211730;28;20568;-93
2023/05/27 05:39:31;;;;;;;8.03;4.00;;;;;;;10.81;64.95;98246.44;6231064;28;20230;-90
2023/05/27 05:42:33;;;;;;;10.57;4.20;;;;;;;10.85;64.01;98233.47;6214660;28;20230;-87
2023/05/27 05:45:36;;;;;;;9.33;3.43;;;;;;;12.27;65.31;98449.47;6220118;28;20312;-85
2023/05/27 05:48:38;;;;;;;9.03;3.87;;;;;;;11.37;63.57;98300.28;6218451;28;20228;-85
2023/05/27 05:51:44;;;;;;;10.37;3.90;;;;;;;12.13;63.14;98426.72;6204545;28;20220;-85
2023/05/27 05:54:46;;;;;;;11.80;3.97;;;;;;;12.30;62.17;98421.44;6201144;28;20311;-84
2023/05/27 05:57:49;;;;;;;9.47;4.47;;;;;;;11.91;62.29;98341.03;6206225;28;20231;-85
2023/05/27 06:00:53;;;;;;;11.43;4.33;;;;;;;12.51;61.08;98452.09;6213602;28;20228;-85
2023/05/27 06:04:09;;;;;;;12.47;4.17;;;;;;;12.33;62.79;98415.66;6223542;28;20229;-85
2023/05/27 06:07:15;;;;;;;10.73;3.90;;;;;;;12.42;62.88;98427.59;6225418;28;20338;-86
2023/05/27 06:10:25;;;;;;;11.07;3.83;;;;;;;12.17;62.31;98393.16;6208057;28;20240;-85
2023/05/27 06:13:27;;;;;;;10.77;3.80;;;;;;;12.37;61.83;98398.91;6224673;28;20245;-85
2023/05/27 06:16:32;;;;;;;14.27;4.00;;;;;;;12.78;59.57;98418.44;6213058;28;20239;-86
2023/05/27 06:19:35;;;;;;;10.00;4.03;;;;;;;12.55;60.08;98387.22;6213670;28;20730;-86
2023/05/27 06:22:37;;;;;;;9.23;3.73;;;;;;;13.23;59.31;98479.25;6218096;28;20240;-86
2023/05/27 06:26:05;;;;;;;11.53;3.67;;;;;;;13.32;59.24;98456.41;6202669;28;20235;-86
2023/05/27 06:29:15;;;;;;;9.13;3.70;;;;;;;12.97;57.57;98376.28;6236724;28;20233;-86
2023/05/27 06:32:18;;;;;;;8.77;3.90;;;;;;;12.55;58.92;98274.97;6220744;28;20235;-86
2023/05/27 06:35:22;;;;;;;13.87;3.70;;;;;;;13.42;58.40;98404.91;6236144;28;20220;-85
2023/05/27 06:38:26;;;;;;;8.97;3.83;;;;;;;13.84;57.58;98468.78;6209763;28;20231;-85
2023/05/27 06:41:30;;;;;;;13.00;4.10;;;;;;;13.89;59.23;98479.56;6213050;28;20223;-85
2023/05/27 06:44:52;;;;;;;9.70;3.67;;;;;;;13.99;56.39;98444.09;6212010;28;20237;-86
2023/05/27 06:47:58;;;;;;;8.30;3.67;;;;;;;13.93;54.31;98416.44;6213386;28;20244;-85
2023/05/27 06:51:01;;;;;;;11.27;3.37;;;;;;;13.77;55.66;98399.31;6228051;28;20309;-86
2023/05/27 06:54:04;;;;;;;9.43;3.70;;;;;;;14.57;55.64;98501.78;6227692;28;20232;-86
2023/05/27 06:57:11;;;;;;;12.10;3.73;;;;;;;14.08;53.86;98438.09;6207781;28;20681;-87
2023/05/27 07:00:26;;;;;;;8.23;3.67;;;;;;;13.96;53.67;98386.47;6231598;28;20710;-86
2023/05/27 07:03:57;;;;;;;9.00;3.90;;;;;;;14.57;53.24;98459.69;6212634;28;20251;-85
2023/05/27 07:07:37;;;;;;;13.20;4.03;;;;;;;14.36;53.54;98417.56;6204774;28;20716;-89
2023/05/27 07:10:40;;;;;;;7.53;3.70;;;;;;;14.09;51.36;98358.53;6187859;28;20371;-85
2023/05/27 07:13:42;;;;;;;7.23;3.47;;;;;;;13.37;52.68;98245.06;6158054;28;20236;-88
2023/05/27 07:16:47;;;;;;;14.57;4.20;;;;;;;14.35;52.85;98389.16;6189357;28;20244;-86
2023/05/27 07:19:59;;;;;;;9.27;3.90;;;;;;;13.49;53.64;98236.94;6196752;28;20269;-95
2023/05/27 07:23:05;;;;;;;8.17;3.40;;;;;;;14.04;53.72;98318.25;6199353;28;20319;-93
2023/05/27 07:26:34;;;;;;;10.63;3.63;;;;;;;14.65;52.77;98394.13;6144910;28;20322;-91
2023/05/27 07:29:37;;;;;;;10.33;3.67;;;;;;;15.07;52.70;98445.28;6119875;28;20253;-88
2023/05/27 07:32:46;;;;;;;11.33;4.13;;;;;;;15.08;50.95;98460.34;6151005;28;20275;-90
2023/05/27 07:35:51;;;;;;;10.60;3.90;;;;;;;14.28;49.91;98322.31;6153824;28;20232;-90
2023/05/27 07:38:54;;;;;;;12.53;3.43;;;;;;;13.57;49.45;98166.91;6149936;28;20225;-87
2023/05/27 07:41:57;;;;;;;9.73;3.43;;;;;;;14.90;50.30;98361.38;6129773;28;20229;-88
2023/05/27 07:45:03;;;;;;;8.00;3.30;;;;;;;15.40;50.84;98451.53;6135660;28;20230;-88
2023/05/27 07:48:09;;;;;;;10.17;4.03;;;;;;;15.48;49.61;98443.03;6140500;28;20540;-88
2023/05/27 07:51:14;;;;;;;9.37;3.53;;;;;;;15.76;51.53;98509.09;6165404;28;20213;-85
2023/05/27 07:54:17;;;;;;;10.33;3.67;;;;;;;14.69;49.37;98357.69;6111311;28;20209;-85
2023/05/27 07:57:19;;;;;;;8.73;3.47;;;;;;;15.17;52.16;98429.31;6138510;28;20507;-84
2023/05/27 08:00:22;;;;;;;11.80;3.93;;;;;;;15.36;50.77;98424.38;6150453;28;20741;-80
2023/05/27 08:03:27;;;;;;;11.67;3.83;;;;;;;15.70;51.57;98459.06;6164604;28;20263;-85
2023/05/27 08:06:53;;;;;;;9.60;3.20;;;;;;;15.70;52.66;98448.34;6144914;28;20241;-84
2023/05/27 08:10:07;;;;;;;12.97;3.90;;;;;;;15.94;48.24;98440.72;6197294;28;20231;-83
2023/05/27 08:13:33;;;;;;;13.43;5.43;;;;;;;16.34;49.61;98477.03;6183221;28;20696;-84
2023/05/27 08:17:02;;;;;;;11.20;3.83;;;;;;;15.72;50.25;98389.81;6201670;28;20597;-85
2023/05/27 08:20:19;;;;;;;7.90;2.90;;;;;;;16.35;49.12;98481.31;6212641;28;20228;-85
2023/05/27 08:23:40;;;;;;;10.57;4.33;;;;;;;16.27;46.85;98455.75;6212187;28;20257;-83
2023/05/27 08:26:58;;;;;;;10.70;3.60;;;;;;;16.45;46.31;98468.78;6207772;28;20225;-84
2023/05/27 08:30:12;;;;;;;9.73;3.97;;;;;;;16.45;46.31;98447.25;6227667;28;20220;-85
2023/05/27 08:33:34;;;;;;;13.63;3.97;;;;;;;16.15;47.44;98395.97;6213646;28;20589;-84
2023/05/27 08:36:38;;;;;;;10.83;3.83;;;;;;;16.54;46.79;98444.06;6214765;28;20267;-84
2023/05/27 08:39:40;;;;;;;8.90;3.73;;;;;;;16.56;47.28;98437.34;6227672;28;20236;-84
2023/05/27 08:42:55;;;;;;;11.47;3.97;;;;;;;16.93;47.36;98466.84;6213210;28;20301;-83
2023/05/27 08:45:58;;;;;;;7.90;3.40;;;;;;;16.70;43.95;98448.47;6212434;28;20725;-83
2023/05/27 08:49:02;;;;;;;8.37;3.60;;;;;;;16.53;45.23;98440.56;6211963;28;20738;-82
2023/05/27 08:52:07;;;;;;;12.07;3.63;;;;;;;16.70;45.12;98465.41;6211499;28;20232;-82
2023/05/27 08:55:14;;;;;;;11.23;4.27;;;;;;;16.67;45.34;98414.81;6209612;28;20582;-82
2023/05/27 08:58:17;;;;;;;8.73;3.47;;;;;;;16.75;47.13;98411.66;6211000;28;20227;-83
2023/05/27 09:01:23;;;;;;;10.13;3.40;;;;;;;16.86;48.20;98411.69;6224057;28;20276;-80
2023/05/27 09:04:26;;;;;;;11.53;4.30;;;;;;;16.62;43.92;98376.31;6232020;28;20719;-82
2023/05/27 09:07:29;;;;;;;10.20;3.73;;;;;;;16.86;45.89;98425.13;6210927;28;20279;-82
2023/05/27 09:10:36;;;;;;;9.00;3.47;;;;;;;17.16;48.57;98430.59;6220141;28;20232;-82
2023/05/27 09:13:42;;;;;;;8.77;4.20;;;;;;;16.89;46.30;98389.59;6213101;28;20232;-81
2023/05/27 09:16:45;;;;;;;11.23;4.20;;;;;;;17.09;47.37;98427.34;6210054;28;20248;-83
2023/05/27 09:19:50;;;;;;;9.27;4.00;;;;;;;17.19;45.12;98418.47;6212067;28;20234;-83
2023/05/27 09:23:00;;;;;;;10.93;3.93;;;;;;;17.15;43.52;98380.53;6227737;28;20719;-84
2023/05/27 09:26:10;;;;;;;14.47;4.10;;;;;;;16.90;44.56;98365.13;6209692;28;20720;-82
2023/05/27 09:29:13;;;;;;;9.13;3.43;;;;;;;16.02;45.36;98248.66;6240768;28;20820;-96
2023/05/27 09:32:46;;;;;;;11.80;3.87;;;;;;;14.58;43.27;98002.84;6212052;28;20211;-94
2023/05/27 09:36:22;;;;;;;10.87;3.43;;;;;;;16.47;45.68;98248.78;6119319;28;20630;-94
2023/05/27 09:39:41;;;;;;;10.37;3.73;;;;;;;15.92;45.56;98179.56;6121616;28;20354;-95
2023/05/27 09:42:48;;;;;;;9.10;3.60;;;;;;;14.91;41.13;98023.13;6144130;28;20226;-96
2023/05/27 09:45:52;;;;;;;8.67;3.43;;;;;;;17.70;39.72;98432.00;6141823;28;20336;-84
2023/05/27 09:48:58;;;;;;;8.40;3.30;;;;;;;17.56;41.08;98407.47;6133443;28;20257;-86
2023/05/27 09:52:02;;;;;;;11.27;3.43;;;;;;;17.24;39.08;98360.06;6129866;28;20237;-84
2023/05/27 09:55:08;;;;;;;10.43;3.73;;;;;;;17.37;40.96;98366.78;6148930;28;20276;-84
2023/05/27 09:58:11;;;;;;;7.40;3.80;;;;;;;17.22;38.77;98315.63;6141006;28;20229;-83
2023/05/27 10:01:17;;;;;;;8.70;3.63;;;;;;;17.93;36.31;98446.84;6155145;28;20295;-83
2023/05/27 10:04:21;;;;;;;8.73;4.00;;;;;;;17.41;38.19;98381.34;6138703;28;20246;-83
2023/05/27 10:07:24;;;;;;;7.70;3.57;;;;;;;17.69;36.19;98384.59;6152519;28;20459;-84
2023/05/27 10:10:47;;;;;;;7.33;2.80;;;;;;;18.11;37.82;98435.50;6152233;28;20237;-84
2023/05/27 10:13:50;;;;;;;8.03;3.60;;;;;;;18.11;36.48;98432.81;6212360;28;20225;-82
2023/05/27 10:16:56;;;;;;;10.13;3.77;;;;;;;17.67;38.00;98373.25;6223581;28;20228;-84
2023/05/27 10:19:59;;;;;;;10.10;3.63;;;;;;;17.34;38.51;98266.88;6229471;28;20378;-84
2023/05/27 10:23:13;;;;;;;10.60;3.23;;;;;;;18.23;37.99;98419.88;6199609;28;20232;-84
2023/05/27 10:26:15;;;;;;;9.87;3.50;;;;;;;18.14;38.15;98401.81;6227794;28;20221;-85
2023/05/27 10:29:21;;;;;;;8.50;3.67;;;;;;;17.84;36.43;98343.38;6224859;28;20226;-83
2023/05/27 10:32:23;;;;;;;6.77;3.13;;;;;;;17.67;37.20;98312.09;6215998;28;20224;-84
2023/05/27 10:35:27;;;;;;;7.37;3.50;;;;;;;18.10;37.74;98398.84;6210728;28;20240;-84
2023/05/27 10:38:30;;;;;;;11.17;3.50;;;;;;;18.20;35.07;98406.91;6214728;28;20452;-85
2023/05/27 10:41:40;;;;;;;12.23;3.93;;;;;;;17.69;35.41;98323.41;6227703;28;20250;-85
2023/05/27 10:44:42;;;;;;;9.23;3.63;;;;;;;18.34;36.22;98388.28;6227767;28;20219;-84
2023/05/27 10:47:46;;;;;;;8.60;3.63;;;;;;;18.10;38.00;98328.75;6214775;28;20231;-85
2023/05/27 10:50:53;;;;;;;9.77;3.60;;;;;;;18.17;38.50;98333.81;6214783;28;20653;-85
2023/05/27 10:53:55;;;;;;;11.00;3.50;;;;;;;17.91;37.38;98320.44;6211418;28;21794;-84
2023/05/27 10:57:18;;;;;;;7.63;3.33;;;;;;;18.19;39.26;98356.75;6209218;28;20231;-84
2023/05/27 11:00:27;;;;;;;11.17;3.80;;;;;;;17.78;38.75;98267.91;6226025;28;20212;-83
2023/05/27 11:03:29;;;;;;;9.90;3.80;;;;;;;18.38;36.57;98350.78;6208523;28;20274;-83
2023/05/27 11:06:33;;;;;;;10.73;3.73;;;;;;;18.14;35.92;98334.41;6222440;28;20321;-85
2023/05/27 11:09:50;;;;;;;8.73;3.30;;;;;;;18.56;36.10;98390.59;6224335;28;20456;-85
2023/05/27 11:12:53;;;;;;;11.70;3.63;;;;;;;18.22;36.51;98337.31;6210574;28;20228;-85
2023/05/27 11:15:55;;;;;;;8.80;3.60;;;;;;;18.32;37.94;98336.47;6226186;28;20232;-84
2023/05/27 11:18:58;;;;;;;8.03;3.67;;;;;;;18.70;38.68;98355.75;6215623;28;20243;-84
2023/05/27 11:22:00;;;;;;;8.90;4.07;;;;;;;18.94;37.61;98388.31;6199174;28;20311;-84
2023/05/27 11:25:05;;;;;;;7.77;3.60;;;;;;;19.04;37.68;98393.66;6218065;28;20240;-84
2023/05/27 11:28:16;;;;;;;10.87;3.97;;;;;;;18.54;35.57;98334.22;6199723;28;20723;-84
2023/05/27 11:31:21;;;;;;;8.20;3.40;;;;;;;18.64;35.97;98354.97;6214022;28;20235;-84
2023/05/27 11:34:23;;;;;;;8.33;3.43;;;;;;;18.40;35.99;98311.63;6210952;28;20625;-85
2023/05/27 11:37:32;;;;;;;7.90;3.50;;;;;;;18.49;37.53;98312.66;6232589;28;20239;-85
2023/05/27 11:40:38;;;;;;;13.07;3.70;;;;;;;18.41;37.73;98294.34;6232088;28;20227;-85
2023/05/27 11:43:52;;;;;;;6.87;3.07;;;;;;;18.64;37.85;98335.25;6203180;28;20225;-84
2023/05/27 11:47:00;;;;;;;9.57;3.33;;;;;;;18.63;37.83;98309.38;6204562;28;20300;-84
2023/05/27 11:50:03;;;;;;;8.20;3.87;;;;;;;18.87;37.52;98340.03;6201913;28;20609;-83
2023/05/27 11:53:06;;;;;;;11.27;3.83;;;;;;;18.69;38.17;98283.97;6213824;28;20239;-80
2023/05/27 11:56:09;;;;;;;9.30;3.20;;;;;;;18.87;37.90;98312.22;6228357;28;20224;-83
2023/05/27 11:59:11;;;;;;;9.27;3.33;;;;;;;18.90;37.98;98306.25;6213856;28;20315;-85
2023/05/27 12:02:14;;;;;;;11.17;3.60;;;;;;;19.13;38.35;98300.16;6214337;28;20232;-84
2023/05/27 12:05:16;;;;;;;8.07;3.37;;;;;;;18.78;37.34;98239.13;6210300;28;20394;-90
2023/05/27 12:08:21;;;;;;;8.43;3.40;;;;;;;19.18;38.59;98302.81;6207172;28;20241;-85
2023/05/27 12:11:24;;;;;;;7.90;3.20;;;;;;;19.50;37.54;98350.09;6177093;28;20233;-82
2023/05/27 12:14:27;;;;;;;7.53;3.57;;;;;;;19.28;36.77;98323.53;6199111;28;20230;-82
2023/05/27 12:17:30;;;;;;;11.40;3.50;;;;;;;19.31;37.67;98317.56;6195712;28;20224;-85
2023/05/27 12:20:32;;;;;;;8.37;3.20;;;;;;;19.50;34.63;98331.97;6187601;28;20274;-84
2023/05/27 12:23:35;;;;;;;11.73;3.80;;;;;;;19.28;35.75;98337.84;6209427;28;20224;-85
2023/05/27 12:26:37;;;;;;;10.73;3.17;;;;;;;19.06;36.33;98280.75;6213481;28;20248;-84
2023/05/27 12:29:39;;;;;;;7.80;3.27;;;;;;;19.25;36.96;98329.47;6208853;28;20399;-84
2023/05/27 12:32:42;;;;;;;6.93;3.73;;;;;;;18.72;36.23;98229.47;6186711;28;20231;-84
2023/05/27 12:35:44;;;;;;;5.63;3.30;;;;;;;19.07;38.78;98269.69;6207529;28;20242;-85
2023/05/27 12:38:47;;;;;;;9.57;3.93;;;;;;;19.36;36.65;98304.03;6184162;28;20707;-84
2023/05/27 12:41:50;;;;;;;9.20;3.40;;;;;;;19.04;36.18;98248.63;6212625;28;20230;-86
2023/05/27 12:44:53;;;;;;;8.87;3.40;;;;;;;19.38;35.70;98301.03;6207115;28;20226;-86
2023/05/27 12:47:56;;;;;;;8.40;3.50;;;;;;;19.30;36.49;98272.72;6212725;28;20256;-85
2023/05/27 12:50:58;;;;;;;11.70;3.87;;;;;;;19.34;40.43;98293.47;6194794;28;20236;-85
2023/05/27 12:54:00;;;;;;;10.63;3.30;;;;;;;19.44;38.24;98297.19;6212073;28;20231;-85
2023/05/27 12:57:06;;;;;;;8.77;3.50;;;;;;;19.36;38.55;98304.03;6185661;28;20594;-85
2023/05/27 13:00:09;;;;;;;14.43;4.10;;;;;;;19.59;36.78;98329.47;6212557;28;20220;-86
2023/05/27 13:03:12;;;;;;;9.13;3.60;;;;;;;19.25;35.18;98257.34;6210323;28;20213;-85
2023/05/27 13:06:14;;;;;;;9.97;3.80;;;;;;;19.11;35.61;98256.38;6205371;28;20211;-84
2023/05/27 13:09:18;;;;;;;12.83;3.37;;;;;;;19.45;36.38;98282.56;6189225;28;20789;-86
2023/05/27 13:12:20;;;;;;;9.30;3.77;;;;;;;19.53;36.62;98281.97;6184531;28;20679;-82
2023/05/27 13:15:23;;;;;;;7.47;3.43;;;;;;;19.29;37.41;98263.00;6184124;28;20243;-84
2023/05/27 13:18:26;;;;;;;11.53;3.63;;;;;;;17.99;37.31;98066.47;6200324;28;20307;-85
2023/05/27 13:21:28;;;;;;;8.17;3.90;;;;;;;19.36;36.66;98236.47;6205715;28;20236;-84
2023/05/27 13:24:30;;;;;;;12.30;3.53;;;;;;;19.46;36.75;98222.88;6184297;28;20229;-85
2023/05/27 13:27:33;;;;;;;8.03;3.80;;;;;;;19.27;38.57;98170.66;6192434;28;20222;-85
2023/05/27 13:30:35;;;;;;;10.37;3.83;;;;;;;19.82;37.38;98284.69;6211727;28;20228;-85
2023/05/27 13:33:38;;;;;;;13.07;3.90;;;;;;;19.19;39.50;98199.06;6194105;28;20239;-86
2023/05/27 13:36:40;;;;;;;10.33;3.60;;;;;;;17.97;37.85;98003.91;6206358;28;20250;-85
2023/05/27 13:39:43;;;;;;;8.03;3.60;;;;;;;19.44;36.76;98202.59;6206951;28;20243;-85
2023/05/27 13:42:46;;;;;;;8.80;3.20;;;;;;;19.44;39.87;98216.13;6208959;28;20584;-85
2023/05/27 13:45:48;;;;;;;7.53;3.37;;;;;;;19.58;36.24;98209.75;6203686;28;20240;-85
2023/05/27 13:48:51;;;;;;;7.20;3.87;;;;;;;19.69;37.30;98220.47;6189691;28;20241;-87
2023/05/27 13:51:53;;;;;;;12.27;3.90;;;;;;;19.51;35.32;98203.09;6186601;28;20652;-86
2023/05/27 13:54:56;;;;;;;8.93;4.00;;;;;;;18.23;35.25;97984.84;6211497;28;20232;-86
2023/05/27 13:57:59;;;;;;;13.87;3.90;;;;;;;20.11;35.71;98257.56;6206060;28;20225;-91
2023/05/27 14:01:01;;;;;;;8.17;3.40;;;;;;;19.06;33.66;98122.25;6201170;28;20537;-85
2023/05/27 14:04:04;;;;;;;7.50;3.33;;;;;;;19.31;34.77;98164.38;6184468;28;20217;-87
2023/05/27 14:07:07;;;;;;;7.90;3.27;;;;;;;19.65;36.72;98208.63;6208537;28;20225;-86
2023/05/27 14:10:10;;;;;;;6.90;3.27;;;;;;;19.26;34.80;98150.94;6210163;28;20242;-86
2023/05/27 14:13:13;;;;;;;7.13;2.93;;;;;;;19.79;35.63;98233.88;6208324;28;20283;-86
2023/05/27 14:16:16;;;;;;;10.10;3.80;;;;;;;19.65;36.10;98222.94;6210717;28;20315;-86
2023/05/27 14:19:19;;;;;;;7.10;3.43;;;;;;;19.87;33.95;98235.16;6211785;28;20224;-85
2023/05/27 14:22:22;;;;;;;7.53;3.67;;;;;;;19.34;33.34;98127.88;6229597;28;20334;-84
2023/05/27 14:25:24;;;;;;;7.90;3.80;;;;;;;19.54;33.64;98170.06;6233781;28;20257;-84
2023/05/27 14:28:27;;;;;;;5.60;3.03;;;;;;;19.44;33.14;98165.56;6210794;28;20598;-85
2023/05/27 14:31:30;;;;;;;7.30;3.33;;;;;;;19.61;33.23;98197.59;6229618;28;20719;-85